METAR Formatted Surface Weather Observation
Issued by NWS

Home | Current Version | Previous Version | Text Only | Print | Product List | Glossary On
Versions: 1 2 3 4 5 6 7 8 9 10 11 12
000
SAUS45 KFGZ 281658 COR
MTRRQE
METAR KRQE 281653Z AUTO VRB05KT 10SM OVC110 23/11 A3047 RMK AO2
SLP200 T02280111 TSNO



USA.gov is the U.S. government's official web portal to all federal, state and local government web resources and services.